Time;durP1;ratioP1;P1;durP2;ratioP2;P2;SDS_P1;SDS_P2;PMS_P1;PMS_P2;Temp;Humidity;BMP_temperature;BMP_pressure;BME280_temperature;BME280_humidity;BME280_pressure;Samples;Min_cycle;Max_cycle;Signal;HPM_P1;HPM_P2
2023/05/26 00:00:24;;;;;;;6.40;5.27;;;14.20;98.60;;;;;;5010783;28;20182;-75
2023/05/26 00:02:50;;;;;;;10.13;6.17;;;14.20;98.70;;;;;;5026146;28;20197;-75
2023/05/26 00:05:16;;;;;;;9.00;3.90;;;14.10;99.40;;;;;;5010417;28;20189;-75
2023/05/26 00:07:42;;;;;;;8.27;4.85;;;14.10;99.50;;;;;;5010827;28;20170;-75
2023/05/26 00:10:09;;;;;;;7.57;5.20;;;14.10;99.80;;;;;;5019787;28;20177;-75
2023/05/26 00:12:35;;;;;;;6.93;4.90;;;14.00;99.90;;;;;;5046306;28;20251;-75
2023/05/26 00:15:02;;;;;;;7.43;5.10;;;14.00;99.90;;;;;;5046680;28;20255;-75
2023/05/26 00:17:28;;;;;;;9.93;5.85;;;14.00;99.90;;;;;;5030460;28;20193;-75
2023/05/26 00:19:54;;;;;;;9.33;5.13;;;13.90;99.90;;;;;;5031480;28;20172;-75
2023/05/26 00:22:19;;;;;;;8.75;4.47;;;13.90;99.90;;;;;;5029891;28;20573;-74
2023/05/26 00:24:46;;;;;;;10.73;4.60;;;13.90;99.90;;;;;;5029581;28;20189;-75
2023/05/26 00:27:12;;;;;;;12.65;4.22;;;13.90;99.90;;;;;;5028683;28;20169;-75
2023/05/26 00:29:38;;;;;;;9.35;4.30;;;13.80;99.90;;;;;;5009716;28;20273;-75
2023/05/26 00:32:05;;;;;;;12.20;3.57;;;13.80;99.90;;;;;;5026467;28;20678;-75
2023/05/26 00:34:31;;;;;;;10.90;4.75;;;13.80;99.90;;;;;;4993085;28;20198;-75
2023/05/26 00:36:56;;;;;;;12.75;4.15;;;13.80;99.90;;;;;;5006214;28;20689;-75
2023/05/26 00:39:22;;;;;;;11.27;3.60;;;13.80;99.90;;;;;;4993488;28;20178;-75
2023/05/26 00:41:51;;;;;;;15.13;5.00;;;13.70;99.90;;;;;;5010020;28;20232;-75
2023/05/26 00:44:21;;;;;;;8.85;3.25;;;13.80;99.90;;;;;;4993271;28;20190;-75
2023/05/26 00:46:47;;;;;;;13.57;4.45;;;13.70;99.90;;;;;;5026163;28;20217;-75
2023/05/26 00:49:13;;;;;;;16.43;5.70;;;13.70;99.90;;;;;;5011410;28;20174;-75
2023/05/26 00:51:39;;;;;;;13.50;3.67;;;13.70;99.90;;;;;;4993186;28;20628;-75
2023/05/26 00:54:07;;;;;;;9.93;4.03;;;13.70;99.90;;;;;;5026479;28;20546;-75
2023/05/26 00:56:35;;;;;;;13.32;4.38;;;13.60;99.90;;;;;;5025644;28;20228;-75
2023/05/26 00:59:02;;;;;;;13.45;4.43;;;13.60;99.90;;;;;;5009994;28;20167;-75
2023/05/26 01:01:32;;;;;;;8.90;4.25;;;13.60;99.90;;;;;;5010471;28;20613;-75
2023/05/26 01:03:58;;;;;;;10.73;4.03;;;13.60;99.90;;;;;;5009548;28;20261;-74
2023/05/26 01:06:24;;;;;;;17.02;4.85;;;13.60;99.90;;;;;;5033763;28;20329;-75
2023/05/26 01:08:51;;;;;;;15.18;3.80;;;13.60;99.90;;;;;;5011216;28;20198;-75
2023/05/26 01:11:22;;;;;;;10.43;4.03;;;13.60;99.90;;;;;;5009733;28;20182;-75
2023/05/26 01:13:54;;;;;;;14.73;4.40;;;13.50;99.90;;;;;;5008697;28;20182;-75
2023/05/26 01:16:22;;;;;;;16.63;4.15;;;13.50;99.90;;;;;;5010911;28;20328;-76
2023/05/26 01:19:00;;;;;;;15.20;4.30;;;13.50;99.90;;;;;;5029575;28;20206;-75
2023/05/26 01:21:32;;;;;;;16.45;4.85;;;13.50;99.90;;;;;;5029937;28;20177;-75
2023/05/26 01:24:15;;;;;;;11.27;3.55;;;13.40;99.90;;;;;;5027721;28;20174;-75
2023/05/26 01:27:38;;;;;;;13.35;3.15;;;13.40;99.90;;;;;;5010286;28;20189;-75
2023/05/26 01:30:05;;;;;;;9.88;3.60;;;13.40;99.90;;;;;;5011541;28;20171;-75
2023/05/26 01:32:31;;;;;;;9.98;3.85;;;13.40;99.90;;;;;;4995677;28;20182;-73
2023/05/26 01:34:56;;;;;;;13.47;3.70;;;13.30;99.90;;;;;;5011965;28;20281;-74
2023/05/26 01:37:22;;;;;;;10.03;3.10;;;13.30;99.90;;;;;;5014148;28;20214;-75
2023/05/26 01:39:48;;;;;;;10.93;3.60;;;13.30;99.90;;;;;;4996524;28;20312;-75
2023/05/26 01:42:25;;;;;;;15.40;3.23;;;13.20;99.90;;;;;;4996771;28;20561;-75
2023/05/26 01:44:57;;;;;;;12.13;4.00;;;13.20;99.90;;;;;;5011999;28;20675;-75
2023/05/26 01:47:25;;;;;;;13.07;3.05;;;13.20;99.90;;;;;;5029525;28;20170;-75
2023/05/26 01:49:51;;;;;;;10.57;3.95;;;13.10;99.90;;;;;;5029068;28;20174;-75
2023/05/26 01:52:18;;;;;;;11.68;3.60;;;13.10;99.90;;;;;;5012993;28;20190;-75
2023/05/26 01:54:52;;;;;;;11.15;3.17;;;13.10;99.90;;;;;;5012675;28;20555;-75
2023/05/26 01:57:19;;;;;;;17.17;4.13;;;13.10;99.90;;;;;;5029052;28;20299;-76
2023/05/26 01:59:45;;;;;;;19.38;3.80;;;13.10;99.90;;;;;;5012530;28;20174;-75
2023/05/26 02:02:12;;;;;;;10.88;3.13;;;13.00;99.90;;;;;;5012076;28;20171;-75
2023/05/26 02:04:37;;;;;;;13.13;3.40;;;13.00;99.90;;;;;;4996304;28;20294;-75
2023/05/26 02:07:05;;;;;;;15.90;3.87;;;13.00;99.90;;;;;;4995717;28;20581;-74
2023/05/26 02:09:31;;;;;;;17.75;3.60;;;13.00;99.90;;;;;;4996394;28;20186;-74
2023/05/26 02:11:57;;;;;;;16.45;3.45;;;12.90;99.90;;;;;;5028496;28;20182;-75
2023/05/26 02:14:23;;;;;;;16.40;4.47;;;12.90;99.90;;;;;;5012611;28;20169;-75
2023/05/26 02:16:49;;;;;;;11.40;3.50;;;12.80;99.90;;;;;;5012763;28;20296;-75
2023/05/26 02:19:14;;;;;;;12.63;3.40;;;12.80;99.90;;;;;;5013843;28;20658;-75
2023/05/26 02:21:40;;;;;;;10.60;2.80;;;12.80;99.90;;;;;;5012184;28;20180;-75
2023/05/26 02:24:06;;;;;;;8.80;2.67;;;12.70;99.90;;;;;;5012110;28;20261;-75
2023/05/26 02:26:32;;;;;;;8.53;3.40;;;12.70;99.90;;;;;;5027478;28;20289;-75
2023/05/26 02:28:58;;;;;;;12.53;4.77;;;12.70;99.90;;;;;;5013234;28;21159;-75
2023/05/26 02:31:24;;;;;;;7.53;2.40;;;12.70;99.90;;;;;;5012301;28;20577;-75
2023/05/26 02:33:50;;;;;;;14.13;2.73;;;12.70;99.90;;;;;;5012645;28;20181;-75
2023/05/26 02:36:16;;;;;;;10.20;2.70;;;12.60;99.90;;;;;;5008801;28;20627;-75
2023/05/26 02:38:42;;;;;;;15.73;4.60;;;12.60;99.90;;;;;;4995221;28;20202;-75
2023/05/26 02:41:08;;;;;;;12.75;2.85;;;12.60;99.90;;;;;;5011662;28;20569;-75
2023/05/26 02:43:34;;;;;;;13.95;2.75;;;12.60;99.90;;;;;;4995298;28;20220;-75
2023/05/26 02:46:01;;;;;;;23.63;3.90;;;12.50;99.90;;;;;;5011643;28;20244;-75
2023/05/26 02:48:29;;;;;;;8.40;2.38;;;12.50;99.90;;;;;;4995628;28;20320;-75
2023/05/26 02:50:59;;;;;;;12.20;3.03;;;12.50;99.90;;;;;;5011626;28;20178;-75
2023/05/26 02:53:25;;;;;;;13.02;3.08;;;12.50;99.90;;;;;;5011749;28;20285;-75
2023/05/26 02:55:51;;;;;;;14.17;3.60;;;12.40;99.90;;;;;;5011925;28;20302;-75
2023/05/26 02:58:17;;;;;;;12.20;5.30;;;12.40;99.90;;;;;;4995195;28;20639;-75
2023/05/26 03:00:42;;;;;;;16.57;4.43;;;12.40;99.90;;;;;;5012722;28;20561;-74
2023/05/26 03:03:08;;;;;;;7.20;2.87;;;12.40;99.90;;;;;;5011727;28;20181;-74
2023/05/26 03:05:34;;;;;;;11.38;3.83;;;12.30;99.90;;;;;;5010976;28;20332;-75
2023/05/26 03:08:03;;;;;;;14.03;3.10;;;12.30;99.90;;;;;;5012686;28;20253;-75
2023/05/26 03:10:32;;;;;;;10.05;2.92;;;12.30;99.90;;;;;;5011231;28;20561;-75
2023/05/26 03:12:57;;;;;;;15.05;3.42;;;12.20;99.90;;;;;;5011250;28;20185;-76
2023/05/26 03:15:26;;;;;;;11.70;3.75;;;12.30;99.90;;;;;;5011522;28;20199;-75
2023/05/26 03:17:52;;;;;;;9.50;2.72;;;12.20;99.90;;;;;;4994332;28;20198;-75
2023/05/26 03:20:18;;;;;;;14.07;3.53;;;12.20;99.90;;;;;;5012707;28;20194;-75
2023/05/26 03:22:44;;;;;;;12.90;3.87;;;12.20;99.90;;;;;;5010885;28;20209;-75
2023/05/26 03:25:10;;;;;;;9.50;2.90;;;12.20;99.90;;;;;;5012664;28;20539;-75
2023/05/26 03:27:43;;;;;;;15.75;3.50;;;12.10;99.90;;;;;;5010287;28;20194;-75
2023/05/26 03:30:09;;;;;;;13.50;4.27;;;12.10;99.90;;;;;;4994809;28;20186;-75
2023/05/26 03:32:42;;;;;;;12.77;3.30;;;12.10;99.90;;;;;;5010959;28;20593;-76
2023/05/26 03:35:08;;;;;;;11.20;2.72;;;12.00;99.90;;;;;;5027229;28;20313;-75
2023/05/26 03:37:34;;;;;;;9.23;2.38;;;12.00;99.90;;;;;;4993930;28;20297;-74
2023/05/26 03:40:00;;;;;;;10.77;3.50;;;12.00;99.90;;;;;;5011069;28;20221;-75
2023/05/26 03:42:31;;;;;;;11.73;3.13;;;12.00;99.90;;;;;;4994391;28;20175;-74
2023/05/26 03:44:56;;;;;;;13.10;3.87;;;12.00;99.90;;;;;;4993711;28;20761;-74
2023/05/26 03:47:22;;;;;;;7.80;3.10;;;12.00;99.90;;;;;;4994227;28;20616;-75
2023/05/26 03:49:48;;;;;;;9.37;2.70;;;11.90;99.90;;;;;;5010462;28;20546;-76
2023/05/26 03:52:14;;;;;;;12.48;3.35;;;11.90;99.90;;;;;;5010785;28;20705;-75
2023/05/26 03:54:40;;;;;;;11.35;2.40;;;11.90;99.90;;;;;;4994552;28;20281;-75
2023/05/26 03:57:06;;;;;;;14.50;3.57;;;11.90;99.90;;;;;;4993799;28;20293;-75
2023/05/26 03:59:32;;;;;;;9.00;2.50;;;11.90;99.90;;;;;;5010216;28;20181;-74
2023/05/26 04:01:58;;;;;;;11.80;3.23;;;11.90;99.90;;;;;;5026972;28;20600;-75
2023/05/26 04:04:25;;;;;;;11.27;3.25;;;11.90;99.90;;;;;;5010378;28;20206;-74
2023/05/26 04:06:52;;;;;;;7.20;2.30;;;11.90;99.90;;;;;;5010228;28;20670;-74
2023/05/26 04:09:17;;;;;;;13.27;3.13;;;11.90;99.90;;;;;;5010631;28;20186;-74
2023/05/26 04:11:43;;;;;;;17.27;4.70;;;11.90;99.90;;;;;;5009696;28;20182;-75
2023/05/26 04:14:09;;;;;;;10.18;3.17;;;11.90;99.90;;;;;;4994428;28;20170;-76
2023/05/26 04:16:35;;;;;;;11.13;2.90;;;11.90;99.90;;;;;;5010845;28;20178;-75
2023/05/26 04:19:00;;;;;;;16.73;3.60;;;11.90;99.90;;;;;;5010474;28;20198;-75
2023/05/26 04:21:28;;;;;;;12.82;3.45;;;12.00;99.90;;;;;;5020257;23;20218;-73
2023/05/26 04:23:53;;;;;;;10.33;2.60;;;12.00;99.90;;;;;;4996808;28;20178;-73
2023/05/26 04:26:21;;;;;;;19.27;3.25;;;12.00;99.90;;;;;;5004882;28;20581;-72
2023/05/26 04:29:08;;;;;;;12.75;2.80;;;12.10;99.90;;;;;;4978127;28;20194;-73
2023/05/26 04:31:40;;;;;;;12.20;4.53;;;12.10;99.90;;;;;;4987271;28;20191;-73
2023/05/26 04:34:12;;;;;;;12.43;3.25;;;12.20;99.90;;;;;;4969621;28;20199;-73
2023/05/26 04:36:49;;;;;;;9.68;2.85;;;12.20;99.90;;;;;;4989032;28;20588;-73
2023/05/26 04:39:15;;;;;;;13.23;3.67;;;12.30;99.90;;;;;;4990575;28;20250;-73
2023/05/26 04:41:41;;;;;;;13.63;3.20;;;12.30;99.90;;;;;;4981922;28;20265;-73
2023/05/26 04:44:07;;;;;;;15.30;3.55;;;12.40;99.90;;;;;;4973123;28;20602;-73
2023/05/26 04:46:37;;;;;;;11.98;3.30;;;12.50;99.90;;;;;;4973053;28;20190;-72
2023/05/26 04:49:09;;;;;;;13.48;4.30;;;12.70;99.90;;;;;;4957911;28;20171;-74
2023/05/26 04:51:35;;;;;;;12.70;3.65;;;12.80;99.90;;;;;;4978130;28;20658;-73
2023/05/26 04:54:01;;;;;;;10.13;2.60;;;13.00;99.90;;;;;;4994255;28;20231;-74
2023/05/26 04:56:27;;;;;;;20.07;4.70;;;13.20;99.90;;;;;;4961861;28;20166;-73
2023/05/26 04:58:56;;;;;;;15.32;3.72;;;13.30;99.90;;;;;;4977737;28;20625;-73
2023/05/26 05:01:22;;;;;;;15.43;4.07;;;13.50;99.90;;;;;;4962006;28;20196;-74
2023/05/26 05:04:07;;;;;;;13.63;4.07;;;13.50;99.90;;;;;;4995388;28;20167;-73
2023/05/26 05:06:35;;;;;;;14.43;4.40;;;13.70;99.90;;;;;;4961694;28;20540;-74
2023/05/26 05:09:02;;;;;;;9.88;3.67;;;13.80;99.90;;;;;;4978190;28;20214;-73
2023/05/26 05:11:28;;;;;;;17.65;3.90;;;13.90;99.90;;;;;;4977389;28;20194;-74
2023/05/26 05:13:55;;;;;;;11.27;3.93;;;14.20;99.90;;;;;;4978192;28;20182;-74
2023/05/26 05:16:21;;;;;;;14.47;4.20;;;14.30;99.90;;;;;;4960746;28;20679;-74
2023/05/26 05:18:46;;;;;;;9.77;4.20;;;14.50;99.90;;;;;;4957713;28;20639;-73
2023/05/26 05:21:12;;;;;;;11.27;4.30;;;14.60;99.90;;;;;;4982901;28;20206;-73
2023/05/26 05:23:38;;;;;;;15.87;4.30;;;14.80;99.90;;;;;;4964342;28;20176;-74
2023/05/26 05:26:04;;;;;;;12.87;5.23;;;15.00;99.90;;;;;;4981846;28;20619;-74
2023/05/26 05:28:32;;;;;;;15.70;5.17;;;15.10;99.90;;;;;;4958091;28;20575;-74
2023/05/26 05:31:04;;;;;;;15.67;4.70;;;15.20;99.90;;;;;;4957874;28;20752;-74
2023/05/26 05:33:31;;;;;;;17.77;5.90;;;15.40;99.90;;;;;;4942062;28;21049;-73
2023/05/26 05:35:57;;;;;;;13.70;5.10;;;15.50;99.90;;;;;;4968280;28;20694;-74
2023/05/26 05:38:23;;;;;;;13.37;4.40;;;15.50;99.90;;;;;;4976919;28;20210;-73
2023/05/26 05:40:48;;;;;;;13.47;5.57;;;15.60;99.90;;;;;;4961303;28;21145;-73
2023/05/26 05:43:15;;;;;;;15.83;5.20;;;15.60;99.90;;;;;;4976905;28;20179;-74
2023/05/26 05:45:41;;;;;;;14.17;5.00;;;15.70;99.90;;;;;;4977393;28;20616;-74
2023/05/26 05:48:06;;;;;;;12.80;5.20;;;15.80;99.90;;;;;;4960536;28;20286;-74
2023/05/26 05:50:39;;;;;;;17.40;6.03;;;16.10;99.90;;;;;;4977151;28;20598;-71
2023/05/26 05:53:05;;;;;;;14.50;5.90;;;16.60;99.90;;;;;;4994039;28;20597;-72
2023/05/26 05:55:30;;;;;;;18.13;5.10;;;17.10;99.90;;;;;;4977269;28;20601;-72
2023/05/26 05:57:57;;;;;;;16.30;6.37;;;17.80;99.90;;;;;;4960416;28;20211;-74
2023/05/26 06:00:23;;;;;;;13.23;5.13;;;18.50;99.90;;;;;;4976852;28;20601;-74
2023/05/26 06:02:49;;;;;;;16.27;5.70;;;19.30;99.90;;;;;;4976445;28;20202;-72
2023/05/26 06:05:15;;;;;;;11.13;5.00;;;20.00;99.90;;;;;;4960395;28;20617;-73
2023/05/26 06:07:41;;;;;;;15.23;5.23;;;20.70;99.90;;;;;;4994149;28;20632;-73
2023/05/26 06:10:07;;;;;;;12.00;5.33;;;21.30;99.90;;;;;;4976386;28;20183;-74
2023/05/26 06:12:34;;;;;;;9.40;5.20;;;21.80;99.90;;;;;;4960495;28;20626;-74
2023/05/26 06:15:00;;;;;;;16.30;4.57;;;22.30;99.90;;;;;;4960195;28;20601;-74
2023/05/26 06:17:27;;;;;;;11.57;5.47;;;22.80;99.90;;;;;;4960405;28;20241;-74
2023/05/26 06:19:52;;;;;;;18.20;4.20;;;23.40;99.90;;;;;;4975506;28;20645;-74
2023/05/26 06:22:18;;;;;;;12.50;5.07;;;23.90;99.90;;;;;;4968049;28;20203;-74
2023/05/26 06:24:44;;;;;;;10.23;5.30;;;24.40;99.90;;;;;;4976524;28;20249;-74
2023/05/26 06:27:10;;;;;;;8.93;4.73;;;24.80;99.90;;;;;;4959056;28;20633;-74
2023/05/26 06:29:37;;;;;;;13.73;5.37;;;25.00;99.40;;;;;;4992733;28;20697;-74
2023/05/26 06:32:04;;;;;;;12.70;5.27;;;25.20;98.40;;;;;;4975736;28;21184;-74
2023/05/26 06:34:32;;;;;;;11.80;5.53;;;25.40;97.30;;;;;;4983272;28;20610;-74
2023/05/26 06:36:57;;;;;;;11.27;5.43;;;25.60;96.40;;;;;;4948149;28;20718;-74
2023/05/26 06:39:24;;;;;;;12.63;4.70;;;25.90;95.80;;;;;;4982411;28;20646;-75
2023/05/26 06:41:51;;;;;;;9.97;4.90;;;26.00;95.10;;;;;;4975120;28;20203;-74
2023/05/26 06:44:17;;;;;;;10.60;4.73;;;26.10;94.00;;;;;;4946432;28;20606;-75
2023/05/26 06:46:44;;;;;;;13.10;4.80;;;26.30;93.40;;;;;;4980879;28;20183;-75
2023/05/26 06:49:14;;;;;;;11.83;4.53;;;26.60;92.00;;;;;;4954322;28;20594;-75
2023/05/26 06:51:44;;;;;;;14.33;4.93;;;26.90;91.80;;;;;;4944450;28;20626;-75
2023/05/26 06:54:10;;;;;;;14.23;4.90;;;27.20;91.40;;;;;;4951975;28;20595;-74
2023/05/26 06:56:36;;;;;;;10.87;4.97;;;27.50;90.70;;;;;;4946380;28;20599;-74
2023/05/26 06:59:02;;;;;;;12.20;5.20;;;27.70;88.50;;;;;;4959315;28;21068;-74
2023/05/26 07:01:28;;;;;;;10.53;5.37;;;27.90;87.50;;;;;;4975761;28;20286;-75
2023/05/26 07:03:53;;;;;;;14.90;5.17;;;28.20;87.00;;;;;;4975392;28;20639;-74
2023/05/26 07:06:19;;;;;;;12.00;4.67;;;28.50;86.00;;;;;;4975709;28;20191;-74
2023/05/26 07:08:48;;;;;;;10.90;4.60;;;29.00;84.80;;;;;;4959100;28;20621;-74
2023/05/26 07:11:21;;;;;;;9.60;4.00;;;29.40;84.20;;;;;;4960560;28;20927;-74
2023/05/26 07:13:53;;;;;;;11.73;5.10;;;29.80;82.10;;;;;;4974398;28;20606;-74
2023/05/26 07:16:21;;;;;;;11.70;4.90;;;30.10;78.90;;;;;;4973724;28;21196;-74
2023/05/26 07:18:47;;;;;;;10.27;4.50;;;30.50;78.40;;;;;;4952757;28;20645;-74
2023/05/26 07:21:15;;;;;;;6.37;4.13;;;30.80;77.00;;;;;;4974826;28;20704;-74
2023/05/26 07:23:43;;;;;;;8.20;4.40;;;31.10;74.50;;;;;;4959134;28;20175;-74
2023/05/26 07:26:09;;;;;;;10.33;5.13;;;31.20;70.90;;;;;;4971134;28;20707;-74
2023/05/26 07:28:35;;;;;;;9.40;5.53;;;31.40;69.10;;;;;;4965880;28;20598;-74
2023/05/26 07:31:01;;;;;;;8.77;4.23;;;31.40;67.60;;;;;;4954709;28;20700;-74
2023/05/26 07:33:32;;;;;;;9.63;4.83;;;31.50;66.50;;;;;;4959242;28;20276;-74
2023/05/26 07:35:58;;;;;;;10.47;4.30;;;31.50;64.80;;;;;;4954926;28;20691;-73
2023/05/26 07:38:23;;;;;;;10.40;5.30;;;31.60;63.60;;;;;;4939824;28;20210;-74
2023/05/26 07:40:51;;;;;;;11.50;4.60;;;31.70;63.80;;;;;;4955009;28;20177;-74
2023/05/26 07:43:17;;;;;;;6.60;3.60;;;31.90;63.00;;;;;;4955808;28;20218;-74
2023/05/26 07:45:43;;;;;;;9.10;4.63;;;32.10;62.20;;;;;;4955827;28;20595;-74
2023/05/26 07:48:08;;;;;;;13.63;4.97;;;32.20;60.70;;;;;;4955044;28;20600;-74
2023/05/26 07:50:34;;;;;;;11.20;4.20;;;32.40;60.90;;;;;;4973256;28;20574;-74
2023/05/26 07:53:00;;;;;;;11.10;4.43;;;32.60;60.10;;;;;;4972709;28;20262;-74
2023/05/26 07:55:26;;;;;;;11.97;5.37;;;32.80;59.50;;;;;;4955822;28;20212;-74
2023/05/26 07:57:52;;;;;;;10.53;4.53;;;33.10;58.20;;;;;;4954612;28;21285;-74
2023/05/26 08:00:18;;;;;;;8.83;4.27;;;33.30;57.30;;;;;;4954869;28;20185;-74
2023/05/26 08:02:43;;;;;;;12.70;5.03;;;33.30;56.40;;;;;;4972234;28;20192;-74
2023/05/26 08:05:09;;;;;;;9.50;4.60;;;33.50;55.60;;;;;;4972815;28;20174;-74
2023/05/26 08:07:35;;;;;;;8.87;3.80;;;33.50;54.50;;;;;;4938748;28;20558;-74
2023/05/26 08:10:01;;;;;;;7.97;4.20;;;33.50;54.80;;;;;;4970862;28;20741;-74
2023/05/26 08:12:27;;;;;;;9.80;5.00;;;33.60;54.60;;;;;;4980072;28;20217;-74
2023/05/26 08:14:54;;;;;;;8.50;4.13;;;33.70;53.60;;;;;;4968578;28;20591;-74
2023/05/26 08:17:20;;;;;;;6.73;4.03;;;33.60;53.30;;;;;;4973946;28;20204;-74
2023/05/26 08:19:46;;;;;;;12.40;5.53;;;33.60;52.90;;;;;;4968602;28;20616;-75
2023/05/26 08:22:12;;;;;;;10.30;4.47;;;33.70;52.10;;;;;;4988593;28;20742;-75
2023/05/26 08:24:37;;;;;;;9.80;3.73;;;33.50;51.70;;;;;;4973679;28;20182;-74
2023/05/26 08:27:03;;;;;;;8.00;3.97;;;33.60;51.70;;;;;;4970752;28;20170;-74
2023/05/26 08:29:29;;;;;;;10.50;4.10;;;33.60;51.30;;;;;;4976425;28;20634;-74
2023/05/26 08:31:55;;;;;;;8.53;5.40;;;33.50;50.80;;;;;;4959010;28;20665;-74
2023/05/26 08:34:21;;;;;;;8.50;4.53;;;33.50;50.90;;;;;;4987290;28;20184;-74
2023/05/26 08:36:47;;;;;;;10.53;4.53;;;33.50;50.30;;;;;;4972300;28;20176;-74
2023/05/26 08:39:13;;;;;;;10.17;5.07;;;33.50;50.10;;;;;;4991966;28;20206;-74
2023/05/26 08:41:54;;;;;;;11.90;4.37;;;33.60;49.90;;;;;;4973670;28;20644;-74
2023/05/26 08:44:21;;;;;;;14.77;4.90;;;33.70;49.00;;;;;;4974427;28;20595;-74
2023/05/26 08:46:55;;;;;;;9.17;4.60;;;33.60;49.10;;;;;;4973635;28;20587;-74
2023/05/26 08:49:22;;;;;;;12.53;4.90;;;33.70;49.30;;;;;;4991665;28;21162;-74
2023/05/26 08:51:57;;;;;;;12.30;4.63;;;33.70;49.00;;;;;;4990767;28;20624;-74
2023/05/26 08:54:23;;;;;;;10.40;3.97;;;33.80;48.20;;;;;;4974344;28;20618;-74
2023/05/26 08:56:50;;;;;;;11.20;4.37;;;33.90;48.60;;;;;;4973343;28;20573;-74
2023/05/26 08:59:16;;;;;;;8.70;4.07;;;34.00;48.40;;;;;;4970970;28;20166;-74
2023/05/26 09:01:42;;;;;;;8.80;4.20;;;34.20;47.90;;;;;;4979803;28;20730;-74
2023/05/26 09:04:08;;;;;;;10.17;5.10;;;34.30;47.80;;;;;;4979463;28;21027;-75
2023/05/26 09:06:35;;;;;;;10.70;4.93;;;34.40;47.50;;;;;;4957647;28;20179;-74
2023/05/26 09:09:04;;;;;;;10.77;4.07;;;34.50;47.00;;;;;;4972007;28;20186;-74
2023/05/26 09:11:30;;;;;;;10.80;4.60;;;34.50;46.80;;;;;;4965275;28;20713;-75
2023/05/26 09:13:57;;;;;;;15.57;6.33;;;34.60;46.70;;;;;;4990824;28;20593;-74
2023/05/26 09:16:27;;;;;;;10.80;4.53;;;34.70;46.40;;;;;;4973672;28;20593;-74
2023/05/26 09:19:00;;;;;;;10.73;4.03;;;34.70;44.90;;;;;;4990553;28;20676;-74
2023/05/26 09:21:27;;;;;;;7.90;3.90;;;34.70;45.50;;;;;;4991040;28;20627;-75
2023/05/26 09:23:55;;;;;;;10.10;4.77;;;34.80;45.80;;;;;;4972922;28;20578;-75
2023/05/26 09:26:32;;;;;;;10.47;4.67;;;34.80;45.50;;;;;;4988440;28;20591;-75
2023/05/26 09:28:59;;;;;;;10.47;4.53;;;34.90;44.80;;;;;;4976811;28;20969;-75
2023/05/26 09:31:25;;;;;;;12.30;5.87;;;34.80;44.30;;;;;;4969740;28;21131;-74
2023/05/26 09:33:51;;;;;;;10.80;4.27;;;34.90;44.30;;;;;;4989550;28;20586;-75
2023/05/26 09:36:22;;;;;;;11.80;4.40;;;34.90;44.80;;;;;;4972063;28;20189;-75
2023/05/26 09:38:50;;;;;;;8.87;3.70;;;35.00;43.70;;;;;;4976435;28;20660;-74
2023/05/26 09:41:20;;;;;;;11.93;5.70;;;35.00;44.10;;;;;;4994403;28;20655;-74
2023/05/26 09:43:50;;;;;;;12.73;3.73;;;35.00;43.80;;;;;;4994950;28;20585;-74
2023/05/26 09:46:22;;;;;;;8.80;3.80;;;35.10;43.70;;;;;;4971903;28;21155;-74
2023/05/26 09:48:50;;;;;;;9.70;4.23;;;35.20;43.40;;;;;;4954144;28;20590;-74
2023/05/26 09:51:20;;;;;;;12.40;3.97;;;35.20;43.80;;;;;;4994394;28;20613;-74
2023/05/26 09:53:47;;;;;;;10.87;3.80;;;35.30;43.80;;;;;;4977421;28;21164;-74
2023/05/26 09:56:16;;;;;;;9.23;3.03;;;35.40;43.70;;;;;;4977049;28;20612;-75
2023/05/26 09:58:45;;;;;;;9.17;4.00;;;35.40;43.60;;;;;;4976546;28;20656;-74
2023/05/26 10:01:12;;;;;;;12.07;4.73;;;35.40;43.30;;;;;;4976018;28;20622;-74
2023/05/26 10:03:38;;;;;;;9.80;4.13;;;35.40;43.00;;;;;;4941595;28;20601;-74
2023/05/26 10:06:04;;;;;;;11.63;4.80;;;35.40;42.80;;;;;;4969971;28;20607;-74
2023/05/26 10:08:31;;;;;;;8.93;3.73;;;35.40;42.20;;;;;;4955788;28;20180;-74
2023/05/26 10:10:57;;;;;;;11.73;4.20;;;35.30;42.00;;;;;;4983279;28;20653;-75
2023/05/26 10:13:23;;;;;;;6.87;3.63;;;35.30;42.00;;;;;;4993694;28;20637;-74
2023/05/26 10:15:49;;;;;;;9.47;3.87;;;35.00;41.50;;;;;;4960354;28;20201;-74
2023/05/26 10:18:15;;;;;;;10.57;4.90;;;34.50;41.50;;;;;;4955393;28;20641;-74
2023/05/26 10:20:46;;;;;;;11.70;4.97;;;34.30;41.70;;;;;;4938860;28;20588;-74
2023/05/26 10:23:19;;;;;;;9.40;4.60;;;34.20;42.20;;;;;;4956186;28;20185;-74
2023/05/26 10:30:08;;;;;;;9.27;3.80;;;34.20;42.60;;;;;;4979280;23;21174;31
2023/05/26 10:32:54;;;;;;;9.97;4.00;;;34.30;42.80;;;;;;4933016;29;20729;-73
2023/05/26 10:35:21;;;;;;;11.50;4.17;;;34.30;42.20;;;;;;4935136;29;20646;-74
2023/05/26 10:38:14;;;;;;;10.70;4.20;;;34.00;41.30;;;;;;4962918;28;20644;-74
2023/05/26 10:40:44;;;;;;;11.20;4.33;;;33.80;42.30;;;;;;4942009;29;20995;-74
2023/05/26 10:43:27;;;;;;;6.87;2.80;;;33.70;41.70;;;;;;4956399;29;20992;-74
2023/05/26 10:45:57;;;;;;;11.63;4.00;;;33.70;42.20;;;;;;4956400;29;20585;-74
2023/05/26 10:48:52;;;;;;;6.80;3.13;;;33.60;42.00;;;;;;4971279;28;20601;-74
2023/05/26 10:51:26;;;;;;;8.47;4.40;;;33.40;41.60;;;;;;4971240;28;20672;-74
2023/05/26 10:53:56;;;;;;;8.47;3.60;;;32.90;41.80;;;;;;4955751;29;20597;-74
2023/05/26 10:56:44;;;;;;;10.57;3.40;;;32.60;42.10;;;;;;4957340;28;20589;-74
2023/05/26 10:59:33;;;;;;;9.23;3.60;;;32.40;42.00;;;;;;4955967;28;21179;-74
2023/05/26 11:02:04;;;;;;;7.47;3.30;;;32.00;41.80;;;;;;4939858;29;20584;-74
2023/05/26 11:04:47;;;;;;;9.33;3.60;;;31.60;42.80;;;;;;4937511;29;20600;-74
2023/05/26 11:07:24;;;;;;;8.43;4.00;;;31.40;42.70;;;;;;4937189;29;20592;-74
2023/05/26 11:10:05;;;;;;;9.33;3.70;;;31.10;42.60;;;;;;4935806;29;20572;-73
2023/05/26 11:12:32;;;;;;;9.87;3.60;;;30.80;42.60;;;;;;4935715;29;20949;-73
2023/05/26 11:14:59;;;;;;;8.20;3.47;;;30.60;43.00;;;;;;4934790;29;20593;-74
2023/05/26 11:17:25;;;;;;;7.40;2.93;;;30.40;43.40;;;;;;4935335;29;20647;-74
2023/05/26 11:19:58;;;;;;;8.73;3.03;;;30.40;43.80;;;;;;4934145;29;20177;-73
2023/05/26 11:22:25;;;;;;;11.53;4.40;;;30.50;44.10;;;;;;4936941;29;20652;-74
2023/05/26 11:24:51;;;;;;;12.17;3.70;;;30.50;44.10;;;;;;4949921;28;20593;-73
2023/05/26 11:27:17;;;;;;;11.53;5.00;;;30.30;43.40;;;;;;4934002;29;20611;-73
2023/05/26 11:29:48;;;;;;;11.17;3.83;;;29.90;43.00;;;;;;4934774;29;20572;-74
2023/05/26 11:32:14;;;;;;;10.67;3.77;;;29.60;43.20;;;;;;4935497;29;20581;-73
2023/05/26 11:34:40;;;;;;;9.80;4.23;;;29.50;43.70;;;;;;4933621;29;20946;-73
2023/05/26 11:37:08;;;;;;;10.47;4.60;;;29.40;44.10;;;;;;4949817;29;20588;-74
2023/05/26 11:39:36;;;;;;;7.37;4.00;;;29.30;44.30;;;;;;4933501;29;20585;-74
2023/05/26 11:42:10;;;;;;;8.20;3.23;;;29.30;44.60;;;;;;4935371;29;20670;-73
2023/05/26 11:44:35;;;;;;;6.57;3.00;;;29.40;44.90;;;;;;4949961;29;20603;-74
2023/05/26 11:47:01;;;;;;;11.73;4.10;;;29.60;45.10;;;;;;4949357;29;20577;-73
2023/05/26 11:49:27;;;;;;;7.30;3.77;;;29.70;45.10;;;;;;4949787;29;20614;-78
2023/05/26 11:51:52;;;;;;;10.70;4.03;;;29.80;45.20;;;;;;4932798;29;20215;-78
2023/05/26 11:54:19;;;;;;;9.63;4.13;;;29.80;45.30;;;;;;4949314;29;20173;-79
2023/05/26 11:56:46;;;;;;;11.87;4.33;;;29.80;44.70;;;;;;4936582;29;20657;-78
2023/05/26 11:59:17;;;;;;;9.97;3.43;;;29.70;45.00;;;;;;4930401;29;20604;-78
2023/05/26 12:01:43;;;;;;;8.67;3.80;;;29.60;44.80;;;;;;4936620;29;21044;-77
2023/05/26 12:04:09;;;;;;;11.80;3.60;;;29.50;44.80;;;;;;4936682;29;20592;-78
2023/05/26 12:06:40;;;;;;;7.77;3.50;;;29.40;44.70;;;;;;4953204;29;20584;-78
2023/05/26 12:09:30;;;;;;;11.87;3.23;;;29.20;44.50;;;;;;4952000;29;20180;-78
2023/05/26 12:12:03;;;;;;;8.10;2.90;;;29.10;44.60;;;;;;4967977;28;20655;-78
2023/05/26 12:14:28;;;;;;;11.73;4.37;;;29.00;45.00;;;;;;4953277;28;20615;-79
2023/05/26 12:16:55;;;;;;;7.33;3.80;;;28.90;45.00;;;;;;4953122;29;21069;-78
2023/05/26 12:19:21;;;;;;;10.17;3.50;;;28.70;45.00;;;;;;4953184;29;20591;-79
2023/05/26 12:21:53;;;;;;;7.60;2.90;;;28.60;45.10;;;;;;4968188;28;20608;-78
2023/05/26 12:24:38;;;;;;;9.80;4.30;;;28.50;45.00;;;;;;4953034;28;20724;-79
2023/05/26 12:27:07;;;;;;;9.40;3.20;;;28.40;45.20;;;;;;4953073;29;21143;-78
2023/05/26 12:29:52;;;;;;;8.77;3.83;;;28.20;45.40;;;;;;4967776;28;20603;-78
2023/05/26 12:32:18;;;;;;;8.13;3.13;;;28.10;45.40;;;;;;4968242;28;20580;-78
2023/05/26 12:34:43;;;;;;;8.87;3.93;;;28.00;45.60;;;;;;4958763;28;20608;-77
2023/05/26 12:37:09;;;;;;;13.03;4.87;;;27.90;45.80;;;;;;4936807;29;20247;-78
2023/05/26 12:39:35;;;;;;;10.37;3.50;;;27.80;46.20;;;;;;4932189;29;20177;-78
2023/05/26 12:42:01;;;;;;;7.93;3.57;;;27.70;46.20;;;;;;4932687;29;20577;-78
2023/05/26 12:44:27;;;;;;;7.33;2.70;;;27.60;46.10;;;;;;4934425;29;20176;-78
2023/05/26 12:46:52;;;;;;;9.77;3.47;;;27.40;46.10;;;;;;4934125;29;20647;-77
2023/05/26 12:49:18;;;;;;;10.30;3.60;;;27.20;45.90;;;;;;4934812;29;20169;-78